Time;durP1;ratioP1;P1;durP2;ratioP2;P2;SDS_P1;SDS_P2;PMS_P1;PMS_P2;Temp;Humidity;BMP_temperature;BMP_pressure;BME280_temperature;BME280_humidity;BME280_pressure;Samples;Min_cycle;Max_cycle;Signal;HPM_P1;HPM_P2
2021/11/17 02:26:01;;;;;;;116.78;32.08;;;5.30;99.90;;;;;;5054834;28;20400;-89
2021/11/17 02:28:39;;;;;;;127.70;34.65;;;5.30;99.90;;;;;;5047606;28;20067;-88
2021/11/17 02:31:37;;;;;;;125.13;33.42;;;5.30;99.90;;;;;;5048705;28;20043;-88
2021/11/17 02:34:28;;;;;;;114.35;30.85;;;5.30;99.90;;;;;;5030600;28;20040;-87
2021/11/17 02:37:44;;;;;;;122.37;33.40;;;5.30;99.90;;;;;;5031553;28;20041;-89
2021/11/17 02:40:25;;;;;;;122.60;32.17;;;5.30;99.90;;;;;;5055241;28;20313;-88
2021/11/17 02:43:01;;;;;;;124.72;32.38;;;5.30;99.90;;;;;;5045507;28;20040;-88
2021/11/17 02:45:54;;;;;;;118.40;31.10;;;5.40;99.90;;;;;;5047149;28;20188;-88
2021/11/17 02:48:29;;;;;;;119.30;31.35;;;5.30;99.90;;;;;;5035030;28;20594;-88
2021/11/17 02:51:01;;;;;;;111.35;31.30;;;5.30;99.90;;;;;;5038651;28;20122;-87
2021/11/17 02:53:39;;;;;;;113.72;30.55;;;5.40;99.90;;;;;;5046059;28;20120;-90
2021/11/17 02:56:04;;;;;;;112.85;30.98;;;5.40;99.90;;;;;;5031325;28;20117;-87
2021/11/17 02:58:42;;;;;;;122.97;31.35;;;5.40;99.90;;;;;;5051817;28;20088;-87
2021/11/17 03:01:36;;;;;;;119.00;31.63;;;5.40;99.90;;;;;;5045486;28;20058;-89
2021/11/17 03:04:27;;;;;;;119.60;30.73;;;5.40;99.90;;;;;;5025923;28;20116;-87
2021/11/17 03:07:28;;;;;;;114.55;30.90;;;5.40;99.90;;;;;;5029917;28;20096;-90
2021/11/17 03:10:05;;;;;;;127.00;33.10;;;5.50;99.90;;;;;;5042543;28;20044;-89
2021/11/17 03:12:40;;;;;;;121.95;32.08;;;5.40;99.90;;;;;;5046926;28;20090;-89
2021/11/17 03:15:06;;;;;;;111.97;32.17;;;5.50;99.90;;;;;;5025844;28;20056;-89
2021/11/17 03:17:51;;;;;;;128.45;33.80;;;5.40;99.90;;;;;;5043763;28;20327;-87
2021/11/17 03:20:55;;;;;;;124.72;31.95;;;5.50;99.90;;;;;;5031197;28;20041;-88
2021/11/17 03:23:26;;;;;;;123.07;33.40;;;5.50;99.90;;;;;;5031570;28;20506;-89
2021/11/17 03:25:56;;;;;;;129.63;33.17;;;5.50;99.90;;;;;;5052793;28;20091;-89
2021/11/17 03:28:38;;;;;;;123.80;33.17;;;5.50;99.90;;;;;;5039369;28;20037;-90
2021/11/17 03:31:25;;;;;;;122.85;33.45;;;5.50;99.90;;;;;;5047555;28;20047;-87
2021/11/17 03:34:14;;;;;;;135.63;33.08;;;5.50;99.90;;;;;;5043383;28;20040;-88
2021/11/17 03:37:02;;;;;;;135.73;34.22;;;5.50;99.90;;;;;;5036332;28;20113;-90
2021/11/17 03:39:48;;;;;;;139.63;34.67;;;5.50;99.90;;;;;;5039703;28;20036;-88
2021/11/17 03:42:44;;;;;;;117.40;30.83;;;5.50;99.90;;;;;;5029895;28;20136;-89
2021/11/17 03:45:51;;;;;;;123.57;33.20;;;5.60;99.90;;;;;;5046507;28;20033;-90
2021/11/17 03:48:31;;;;;;;122.60;33.03;;;5.60;99.90;;;;;;5032869;28;20041;-88
2021/11/17 03:51:06;;;;;;;129.43;33.72;;;5.60;99.90;;;;;;5056595;28;20052;-88
2021/11/17 03:54:00;;;;;;;124.95;35.03;;;5.60;99.90;;;;;;5047280;28;20510;-87
2021/11/17 03:57:09;;;;;;;112.93;31.55;;;5.60;99.90;;;;;;5026043;28;20434;-89
2021/11/17 03:59:57;;;;;;;121.00;34.75;;;5.60;99.90;;;;;;5026025;28;20063;-88
2021/11/17 04:02:41;;;;;;;127.07;34.10;;;5.70;99.90;;;;;;5045110;28;20082;-88
2021/11/17 04:05:46;;;;;;;133.02;34.95;;;5.70;99.90;;;;;;5052915;28;20052;-88
2021/11/17 04:08:30;;;;;;;121.10;33.30;;;5.70;99.90;;;;;;5032063;28;20044;-90
2021/11/17 04:11:10;;;;;;;131.43;34.38;;;5.70;99.90;;;;;;5030474;28;20076;-87
2021/11/17 04:14:22;;;;;;;126.10;34.25;;;5.70;99.90;;;;;;5047156;28;20047;-88
2021/11/17 04:16:51;;;;;;;125.05;34.05;;;5.70;99.90;;;;;;5026834;28;20052;-88
2021/11/17 04:19:32;;;;;;;121.82;34.00;;;5.80;99.90;;;;;;5047562;28;20363;-87
2021/11/17 04:22:17;;;;;;;116.53;31.10;;;5.80;99.90;;;;;;5031125;28;20044;-87
2021/11/17 04:25:24;;;;;;;130.48;33.85;;;5.80;99.90;;;;;;5023773;28;20041;-87
2021/11/17 04:28:18;;;;;;;135.68;36.92;;;5.90;99.90;;;;;;5032088;28;20137;-88
2021/11/17 04:30:54;;;;;;;111.32;30.60;;;5.80;99.90;;;;;;5042296;28;20040;-88
2021/11/17 04:33:26;;;;;;;126.65;36.47;;;5.80;99.90;;;;;;5045624;28;20037;-88
2021/11/17 04:35:58;;;;;;;124.32;35.55;;;5.80;99.90;;;;;;5041584;28;20045;-88
2021/11/17 04:38:27;;;;;;;133.15;37.58;;;5.80;99.90;;;;;;5045742;28;20464;-88
2021/11/17 04:41:12;;;;;;;129.20;36.03;;;5.90;99.90;;;;;;5041179;28;20036;-87
2021/11/17 04:44:02;;;;;;;140.43;39.50;;;5.90;99.90;;;;;;5043183;28;20398;-87
2021/11/17 04:46:30;;;;;;;126.32;35.08;;;5.90;99.90;;;;;;5030921;28;20036;-87
2021/11/17 04:49:17;;;;;;;141.07;38.42;;;5.90;99.90;;;;;;5045841;28;20072;-87
2021/11/17 04:52:17;;;;;;;138.93;36.22;;;5.90;99.90;;;;;;5043206;28;20401;-87
2021/11/17 04:54:51;;;;;;;131.15;37.47;;;5.90;99.90;;;;;;5045871;28;20040;-88
2021/11/17 04:57:33;;;;;;;153.48;39.83;;;5.90;99.90;;;;;;5050762;28;20036;-88
2021/11/17 05:00:10;;;;;;;156.23;41.40;;;5.90;99.90;;;;;;5044541;28;20232;-88
2021/11/17 05:02:48;;;;;;;156.27;39.20;;;6.00;99.90;;;;;;5038389;28;20060;-87
2021/11/17 05:05:32;;;;;;;161.60;41.13;;;6.00;99.90;;;;;;5047332;28;20041;-86
2021/11/17 05:08:04;;;;;;;139.55;37.85;;;6.00;99.90;;;;;;5044483;28;20437;-87
2021/11/17 05:10:45;;;;;;;151.75;40.13;;;6.00;99.90;;;;;;5019985;28;20037;-89
2021/11/17 05:13:26;;;;;;;160.60;39.65;;;6.00;99.90;;;;;;5062598;28;20447;-87
2021/11/17 05:16:07;;;;;;;154.80;40.60;;;6.00;99.90;;;;;;5042633;28;20041;-86
2021/11/17 05:18:57;;;;;;;143.48;37.58;;;6.00;99.90;;;;;;5027495;28;20064;-88
2021/11/17 05:22:20;;;;;;;165.65;41.95;;;6.00;99.90;;;;;;5045569;28;20449;-88
2021/11/17 05:25:08;;;;;;;134.20;37.58;;;6.00;99.90;;;;;;5004198;28;21516;-89
2021/11/17 05:27:49;;;;;;;129.30;35.53;;;6.10;99.90;;;;;;5047111;28;20045;-89
2021/11/17 05:30:14;;;;;;;161.43;41.17;;;6.10;99.90;;;;;;5036188;28;20097;-88
2021/11/17 05:33:19;;;;;;;141.57;39.70;;;6.10;99.90;;;;;;5061710;28;20601;-88
2021/11/17 05:35:51;;;;;;;137.35;38.95;;;6.10;99.90;;;;;;5045958;28;20135;-88
2021/11/17 05:38:54;;;;;;;145.45;41.67;;;6.20;99.90;;;;;;5043976;28;20040;-89
2021/11/17 05:41:47;;;;;;;145.13;40.03;;;6.10;99.90;;;;;;5029309;28;20225;-87
2021/11/17 05:44:25;;;;;;;142.05;40.65;;;6.10;99.90;;;;;;5052035;28;20048;-88
2021/11/17 05:47:14;;;;;;;138.93;40.03;;;6.20;99.90;;;;;;5047906;28;20040;-89
2021/11/17 05:49:42;;;;;;;141.05;39.42;;;6.20;99.90;;;;;;5048869;28;20051;-87
2021/11/17 05:52:29;;;;;;;140.35;40.08;;;6.20;99.90;;;;;;5049881;28;20063;-89
2021/11/17 05:55:37;;;;;;;121.70;38.08;;;6.20;99.90;;;;;;5047549;28;20629;-88
2021/11/17 05:58:32;;;;;;;157.63;41.67;;;6.20;99.90;;;;;;5047059;28;20083;-88
2021/11/17 06:01:11;;;;;;;145.73;42.42;;;6.20;99.90;;;;;;5044785;28;20106;-87
2021/11/17 06:06:45;;;;;;;146.70;41.70;;;6.30;99.90;;;;;;5057458;28;21308;-88
2021/11/17 06:09:19;;;;;;;133.23;42.78;;;6.30;99.90;;;;;;5046087;28;20044;-89
2021/11/17 06:11:49;;;;;;;150.10;40.72;;;6.30;99.90;;;;;;5045717;28;20461;-88
2021/11/17 06:14:28;;;;;;;158.80;43.55;;;6.30;99.90;;;;;;5037460;28;20645;-87
2021/11/17 06:17:03;;;;;;;152.68;44.03;;;6.30;99.90;;;;;;5037671;28;20067;-87
2021/11/17 06:19:34;;;;;;;156.38;43.97;;;6.30;99.90;;;;;;5047924;28;20517;-87
2021/11/17 06:22:10;;;;;;;150.27;44.13;;;6.40;99.90;;;;;;5045602;28;20044;-88
2021/11/17 06:24:40;;;;;;;164.82;46.08;;;6.40;99.90;;;;;;5031045;28;20033;-89
2021/11/17 06:27:29;;;;;;;160.60;45.75;;;6.40;99.90;;;;;;5047390;28;20098;-87
2021/11/17 06:30:05;;;;;;;169.50;45.90;;;6.40;99.90;;;;;;5048252;28;20394;-89
2021/11/17 06:32:37;;;;;;;148.00;45.63;;;6.50;99.90;;;;;;5049730;28;20368;-88
2021/11/17 06:35:27;;;;;;;162.35;46.70;;;6.50;99.90;;;;;;5049704;28;20115;-87
2021/11/17 06:38:07;;;;;;;159.50;46.85;;;6.50;99.90;;;;;;5046646;28;20028;-89
2021/11/17 06:40:44;;;;;;;159.48;47.92;;;6.50;99.90;;;;;;5042799;28;20044;-89
2021/11/17 06:43:10;;;;;;;168.88;47.35;;;6.50;99.90;;;;;;5034316;28;20095;-87
2021/11/17 06:45:52;;;;;;;163.55;46.13;;;6.50;99.90;;;;;;5043658;28;20102;-87
2021/11/17 06:48:20;;;;;;;167.32;48.42;;;6.50;99.90;;;;;;5042995;28;20049;-88
2021/11/17 06:50:48;;;;;;;158.93;45.10;;;6.50;99.90;;;;;;5045375;28;20036;-89
2021/11/17 06:53:14;;;;;;;149.48;46.60;;;6.50;99.90;;;;;;5041174;28;20391;-88
2021/11/17 06:55:41;;;;;;;157.23;47.15;;;6.60;99.90;;;;;;5024789;28;20059;-87
2021/11/17 06:58:13;;;;;;;164.88;50.08;;;6.60;99.90;;;;;;5037237;28;20052;-85
2021/11/17 07:01:02;;;;;;;160.38;49.15;;;6.60;99.90;;;;;;5037811;28;20103;-88
2021/11/17 07:03:34;;;;;;;168.13;47.75;;;6.60;99.90;;;;;;5040560;28;20072;-87
2021/11/17 07:06:03;;;;;;;175.80;50.47;;;6.60;99.90;;;;;;5039292;28;20307;-87
2021/11/17 07:08:32;;;;;;;156.55;48.35;;;6.60;99.90;;;;;;5044678;28;20028;-84
2021/11/17 07:11:13;;;;;;;149.85;49.03;;;6.60;99.90;;;;;;5025043;28;20047;-85
2021/11/17 07:13:39;;;;;;;149.73;47.40;;;6.70;99.90;;;;;;5039914;28;20213;-86
2021/11/17 07:16:08;;;;;;;147.02;48.80;;;6.60;99.90;;;;;;5048165;28;20060;-87
2021/11/17 07:18:38;;;;;;;157.77;47.90;;;6.60;99.90;;;;;;5047513;28;20032;-86
2021/11/17 07:21:09;;;;;;;150.88;47.40;;;6.60;99.90;;;;;;5042701;28;20033;-88
2021/11/17 07:23:41;;;;;;;154.77;47.10;;;6.60;99.90;;;;;;5042496;28;20037;-89
2021/11/17 07:26:08;;;;;;;168.35;50.70;;;6.70;99.90;;;;;;5047457;28;20071;-88
2021/11/17 07:28:57;;;;;;;140.88;48.40;;;6.60;99.90;;;;;;5009835;28;20126;-90
2021/11/17 07:31:23;;;;;;;153.05;48.90;;;6.70;99.90;;;;;;5029807;28;20500;-85
2021/11/17 07:33:51;;;;;;;150.45;47.78;;;6.70;99.90;;;;;;5045459;28;20119;-87
2021/11/17 07:36:20;;;;;;;156.77;49.95;;;6.70;99.90;;;;;;5026400;28;20051;-86
2021/11/17 07:38:49;;;;;;;155.20;49.33;;;6.70;99.90;;;;;;5042299;28;20040;-87
2021/11/17 07:41:15;;;;;;;155.32;50.58;;;6.70;99.90;;;;;;5010874;28;20051;-86
2021/11/17 07:43:50;;;;;;;148.05;48.88;;;6.70;99.90;;;;;;5040693;28;20302;-86
2021/11/17 07:46:38;;;;;;;153.38;49.90;;;6.70;99.90;;;;;;5035142;28;20036;-87
2021/11/17 07:49:07;;;;;;;158.23;51.35;;;6.70;99.90;;;;;;5045863;28;20041;-89
2021/11/17 07:51:33;;;;;;;151.15;50.95;;;6.80;99.90;;;;;;5046325;28;20055;-85
2021/11/17 07:54:05;;;;;;;153.18;51.10;;;6.80;99.90;;;;;;5037895;28;20032;-87
2021/11/17 07:56:33;;;;;;;148.85;49.80;;;6.90;99.90;;;;;;5041048;28;20036;-88
2021/11/17 07:59:05;;;;;;;158.70;51.80;;;6.80;99.90;;;;;;5040846;28;20032;-87
2021/11/17 08:01:45;;;;;;;152.07;50.08;;;6.90;99.90;;;;;;5043285;28;20487;-85
2021/11/17 08:04:15;;;;;;;162.85;51.47;;;6.90;99.90;;;;;;5046038;28;20119;-88
2021/11/17 08:06:44;;;;;;;172.20;50.97;;;6.90;99.90;;;;;;5043785;28;20058;-88
2021/11/17 08:09:15;;;;;;;161.50;51.08;;;6.90;99.90;;;;;;5045936;28;20040;-88
2021/11/17 08:11:42;;;;;;;166.77;51.97;;;6.90;99.90;;;;;;5039667;28;20044;-87
2021/11/17 08:14:09;;;;;;;154.48;50.03;;;7.00;99.90;;;;;;5039302;28;20051;-88
2021/11/17 08:16:36;;;;;;;165.52;52.38;;;7.00;99.90;;;;;;5039785;28;20406;-88
2021/11/17 08:19:15;;;;;;;171.32;52.70;;;7.00;99.90;;;;;;5045160;28;20039;-88
2021/11/17 08:22:22;;;;;;;160.15;51.97;;;7.00;99.90;;;;;;5017660;28;20073;-88
2021/11/17 08:24:54;;;;;;;158.85;50.25;;;7.00;99.90;;;;;;5030517;28;20113;-87
2021/11/17 08:27:23;;;;;;;166.20;52.55;;;7.00;99.90;;;;;;5030857;28;20063;-87
2021/11/17 08:29:52;;;;;;;159.35;51.13;;;7.10;99.90;;;;;;5010390;28;20055;-86
2021/11/17 08:32:39;;;;;;;156.27;51.33;;;7.10;99.90;;;;;;5053942;28;20044;-90
2021/11/17 08:35:07;;;;;;;154.48;50.35;;;7.10;99.90;;;;;;5035239;28;20040;-87
2021/11/17 08:38:02;;;;;;;164.98;51.80;;;7.10;99.90;;;;;;5067625;28;20060;-86
2021/11/17 08:40:35;;;;;;;151.52;51.63;;;7.20;99.90;;;;;;5043420;28;20120;-88
2021/11/17 08:43:02;;;;;;;159.85;50.28;;;7.20;99.90;;;;;;5044192;28;20079;-86
2021/11/17 08:45:33;;;;;;;162.23;52.53;;;7.20;99.90;;;;;;5046160;28;20041;-88
2021/11/17 08:48:03;;;;;;;156.65;51.78;;;7.20;99.90;;;;;;5025927;28;20055;-89
2021/11/17 08:50:45;;;;;;;157.63;51.50;;;7.30;99.90;;;;;;5044363;28;20040;-87
2021/11/17 08:53:19;;;;;;;178.30;53.88;;;7.30;99.90;;;;;;5037687;28;20117;-88
2021/11/17 08:55:45;;;;;;;177.35;52.67;;;7.30;99.90;;;;;;5018778;28;20148;-87
2021/11/17 08:58:24;;;;;;;159.90;51.38;;;7.40;99.90;;;;;;5034930;28;20485;-86
2021/11/17 09:00:54;;;;;;;157.60;51.45;;;7.40;99.90;;;;;;5030124;28;20037;-88
2021/11/17 09:03:39;;;;;;;179.10;54.20;;;7.40;99.90;;;;;;5030921;28;20040;-88
2021/11/17 09:06:28;;;;;;;158.82;51.13;;;7.50;99.90;;;;;;5041638;28;20029;-89
2021/11/17 09:09:06;;;;;;;166.32;50.05;;;7.50;99.90;;;;;;5024442;28;20039;-90
2021/11/17 09:11:37;;;;;;;151.63;50.40;;;7.50;99.90;;;;;;5019677;28;20036;-90
2021/11/17 09:14:19;;;;;;;153.73;52.13;;;7.50;99.90;;;;;;5032932;28;20262;-90
2021/11/17 09:16:48;;;;;;;157.57;51.67;;;7.50;99.90;;;;;;5038557;28;20143;-87
2021/11/17 09:19:23;;;;;;;157.63;51.78;;;7.60;99.90;;;;;;5036958;28;20534;-90
2021/11/17 09:22:04;;;;;;;157.82;52.40;;;7.50;99.90;;;;;;5038463;28;20048;-90
2021/11/17 09:24:45;;;;;;;170.68;50.42;;;7.60;99.90;;;;;;5019521;28;20033;-90
2021/11/17 09:27:20;;;;;;;174.40;51.88;;;7.60;99.90;;;;;;5049763;28;20040;-90
2021/11/17 09:30:43;;;;;;;168.00;53.15;;;7.70;99.90;;;;;;5033424;28;20338;-88
2021/11/17 09:33:15;;;;;;;178.35;52.13;;;7.70;99.90;;;;;;5026763;28;20059;-86
2021/11/17 09:36:07;;;;;;;185.82;53.38;;;7.70;99.90;;;;;;5042896;28;20036;-89
2021/11/17 09:38:50;;;;;;;180.25;52.90;;;7.80;99.90;;;;;;5049225;28;20068;-87
2021/11/17 09:41:29;;;;;;;192.85;55.83;;;7.80;99.90;;;;;;5041082;28;20033;-86
2021/11/17 09:47:20;;;;;;;190.02;52.83;;;7.80;99.90;;;;;;5033465;28;20430;-86
2021/11/17 09:50:01;;;;;;;187.52;52.67;;;7.90;99.90;;;;;;5027404;28;20048;-88
2021/11/17 09:52:43;;;;;;;183.68;50.88;;;7.90;99.90;;;;;;5045803;28;20028;-87
2021/11/17 09:55:55;;;;;;;196.30;50.38;;;7.90;99.90;;;;;;5033863;28;20056;-90
2021/11/17 09:58:52;;;;;;;185.63;50.43;;;8.00;99.90;;;;;;5047592;28;20044;-86
2021/11/17 10:01:54;;;;;;;162.45;46.30;;;8.00;99.90;;;;;;5042112;28;20045;-89
2021/11/17 10:04:26;;;;;;;172.35;46.10;;;8.00;99.90;;;;;;5049712;28;20032;-87
2021/11/17 10:15:19;;;;;;;144.70;40.63;;;8.10;99.90;;;;;;5059256;28;20498;-88
2021/11/17 10:18:36;;;;;;;146.88;42.40;;;8.20;99.90;;;;;;5056710;28;20119;-90
2021/11/17 10:21:20;;;;;;;144.93;40.60;;;8.10;99.90;;;;;;5044292;28;20033;-89
2021/11/17 10:24:32;;;;;;;;;;;;;;;;;;;;;
2021/11/17 10:28:03;;;;;;;147.88;39.75;;;8.20;99.90;;;;;;4998234;28;20073;-89
2021/11/17 10:30:50;;;;;;;135.05;40.42;;;8.30;99.90;;;;;;5041417;28;20043;-88
2021/11/17 10:33:43;;;;;;;142.65;40.38;;;8.30;99.90;;;;;;5045856;28;20040;-89
2021/11/17 10:36:49;;;;;;;153.20;43.78;;;8.30;99.90;;;;;;5045799;28;20106;-89
2021/11/17 10:39:46;;;;;;;155.23;41.25;;;8.40;99.90;;;;;;5047555;28;20044;-89
2021/11/17 10:42:37;;;;;;;142.80;41.65;;;8.50;99.90;;;;;;5043763;28;20032;-90
2021/11/17 10:45:13;;;;;;;155.55;41.30;;;8.50;99.90;;;;;;5035977;28;20198;-89
2021/11/17 10:47:51;;;;;;;141.23;41.35;;;8.50;99.90;;;;;;5039264;28;20045;-89
2021/11/17 10:53:47;;;;;;;152.23;43.10;;;8.60;99.90;;;;;;5058700;28;20048;-86
2021/11/17 10:56:27;;;;;;;132.02;40.00;;;8.70;99.90;;;;;;5053667;28;20053;-90
2021/11/17 10:59:03;;;;;;;147.13;41.67;;;8.70;99.90;;;;;;5041695;28;20052;-90
2021/11/17 11:01:46;;;;;;;140.55;39.65;;;8.70;99.90;;;;;;5043949;28;20127;-89
2021/11/17 11:04:19;;;;;;;;;;;8.70;99.90;;;;;;5040336;28;20037;-90
2021/11/17 11:07:14;;;;;;;126.78;40.30;;;8.70;99.90;;;;;;5046157;28;19969;-91
2021/11/17 11:18:13;;;;;;;136.70;42.15;;;9.00;99.90;;;;;;5096456;22;20048;-90
2021/11/17 11:21:56;;;;;;;111.72;37.05;;;9.20;99.90;;;;;;5015738;28;20439;-88
2021/11/17 11:25:25;;;;;;;105.72;36.85;;;9.30;99.90;;;;;;4985606;28;20053;-88
2021/11/17 11:29:05;;;;;;;81.90;31.58;;;9.40;99.90;;;;;;4996850;28;20272;-88
2021/11/17 11:32:41;;;;;;;87.03;29.67;;;9.70;99.90;;;;;;4926365;29;20058;-88
2021/11/17 11:35:24;;;;;;;74.97;28.33;;;9.70;99.90;;;;;;4890769;29;20503;-88
2021/11/17 11:37:53;;;;;;;75.18;25.33;;;9.80;99.90;;;;;;4949729;28;20545;-86
2021/11/17 11:40:22;;;;;;;73.38;26.63;;;9.90;99.90;;;;;;5003413;28;20134;-86
2021/11/17 11:43:05;;;;;;;70.40;26.83;;;10.00;99.90;;;;;;5003145;28;20034;-85
2021/11/17 11:45:50;;;;;;;60.88;22.92;;;10.20;99.90;;;;;;5003407;28;20029;-87
2021/11/17 11:48:44;;;;;;;57.35;21.95;;;10.30;99.90;;;;;;5016752;28;20044;-88
2021/11/17 11:55:12;;;;;;;58.13;19.30;;;10.40;99.90;;;;;;5014493;28;20512;-86
2021/11/17 12:02:19;;;;;;;53.03;19.02;;;10.60;99.90;;;;;;4961145;28;20076;-88
2021/11/17 12:11:53;;;;;;;40.92;14.38;;;11.20;99.90;;;;;;5212055;22;20114;-84
2021/11/17 12:15:12;;;;;;;43.75;15.25;;;11.40;99.90;;;;;;5043822;28;20037;-89
2021/11/17 12:17:44;;;;;;;40.05;13.07;;;11.40;99.90;;;;;;4946435;28;20050;-88
2021/11/17 12:20:39;;;;;;;40.58;12.05;;;11.50;99.90;;;;;;4946182;28;20099;-89
2021/11/17 12:23:28;;;;;;;37.72;12.02;;;11.60;99.90;;;;;;5018016;28;20682;-90
2021/11/17 12:26:26;;;;;;;36.22;10.35;;;11.70;99.90;;;;;;5016960;28;20505;-87
2021/11/17 12:29:04;;;;;;;28.90;8.15;;;11.80;99.90;;;;;;5026986;28;20071;-86
2021/11/17 12:32:03;;;;;;;25.98;6.47;;;11.80;99.90;;;;;;5027980;28;20123;-86
2021/11/17 12:35:20;;;;;;;25.67;5.57;;;11.80;99.90;;;;;;5026516;28;20040;-87
2021/11/17 12:38:20;;;;;;;26.45;5.57;;;11.80;99.90;;;;;;5023524;28;20028;-87
2021/11/17 12:40:50;;;;;;;24.83;4.50;;;12.00;99.90;;;;;;5011058;28;20119;-86
2021/11/17 12:43:49;;;;;;;;;;;;;;;;;;;;;
2021/11/17 12:46:47;;;;;;;23.08;4.13;;;12.10;99.90;;;;;;5065661;28;20046;-88
2021/11/17 12:49:36;;;;;;;23.52;3.50;;;11.90;99.90;;;;;;5035931;28;20410;-86
2021/11/17 12:52:41;;;;;;;20.58;3.40;;;11.80;99.90;;;;;;5034339;28;20064;-86
2021/11/17 12:55:36;;;;;;;20.15;2.97;;;11.70;99.90;;;;;;5033451;28;20044;-86
2021/11/17 12:58:13;;;;;;;26.55;3.80;;;11.70;99.90;;;;;;5058349;28;20040;-87
2021/11/17 13:01:12;;;;;;;20.13;2.88;;;11.60;99.90;;;;;;5034194;28;20147;-86
2021/11/17 13:03:50;;;;;;;20.90;3.85;;;11.60;99.90;;;;;;5035686;28;20086;-88
2021/11/17 13:06:29;;;;;;;22.30;2.80;;;11.60;99.90;;;;;;5043475;28;20499;-88
2021/11/17 13:09:16;;;;;;;25.85;3.92;;;11.50;99.90;;;;;;5032980;28;20039;-86
2021/11/17 13:11:49;;;;;;;18.15;2.83;;;11.50;99.90;;;;;;5039960;28;21747;-86
2021/11/17 13:14:16;;;;;;;;;;;11.40;99.90;;;;;;5052129;28;20037;-90
2021/11/17 13:16:46;;;;;;;17.30;3.22;;;11.30;99.90;;;;;;5030607;28;19928;-89
2021/11/17 13:19:30;;;;;;;20.35;3.30;;;11.30;99.90;;;;;;5030812;28;20232;-88
2021/11/17 13:21:59;;;;;;;22.50;3.45;;;11.20;99.90;;;;;;5028337;28;20470;-88
2021/11/17 13:24:32;;;;;;;25.05;3.53;;;11.20;99.90;;;;;;5027629;28;20102;-88
2021/11/17 13:27:07;;;;;;;18.77;2.50;;;11.20;99.90;;;;;;5028536;28;20037;-85
2021/11/17 13:29:52;;;;;;;19.02;3.03;;;11.20;99.90;;;;;;5052556;28;20222;-86
2021/11/17 13:32:39;;;;;;;21.60;3.08;;;11.10;99.90;;;;;;5036875;28;20131;-87
2021/11/17 13:35:30;;;;;;;22.63;3.50;;;11.00;99.90;;;;;;5045149;28;20522;-84
2021/11/17 13:38:17;;;;;;;24.58;3.42;;;11.10;99.90;;;;;;5029537;28;20032;-86
2021/11/17 13:40:46;;;;;;;28.25;4.20;;;11.10;99.90;;;;;;5029653;28;20076;-87
2021/11/17 13:43:13;;;;;;;13.43;2.85;;;11.00;99.90;;;;;;5019713;28;20047;-87
2021/11/17 13:45:40;;;;;;;17.67;3.15;;;11.10;99.90;;;;;;5039398;28;20325;-86
2021/11/17 13:48:18;;;;;;;18.73;3.10;;;11.10;99.90;;;;;;4997994;28;20067;-89
2021/11/17 13:50:46;;;;;;;24.50;3.53;;;11.10;99.90;;;;;;5034369;28;20450;-85
2021/11/17 13:53:14;;;;;;;14.65;2.85;;;11.10;99.90;;;;;;5022532;28;20032;-86
2021/11/17 13:56:05;;;;;;;22.00;2.97;;;11.10;99.90;;;;;;5010808;28;20040;-87
2021/11/17 13:58:32;;;;;;;19.70;2.70;;;11.10;99.90;;;;;;5016520;28;20051;-87
2021/11/17 14:01:06;;;;;;;16.80;2.80;;;11.20;99.90;;;;;;5018533;28;20037;-89
2021/11/17 14:03:34;;;;;;;16.83;2.78;;;11.20;99.90;;;;;;5014568;28;20041;-85
2021/11/17 14:06:06;;;;;;;21.55;2.63;;;11.20;99.90;;;;;;5024884;28;20050;-87
2021/11/17 14:08:35;;;;;;;21.15;2.72;;;11.30;99.90;;;;;;5025116;28;20028;-85
2021/11/17 14:11:03;;;;;;;14.18;2.42;;;11.30;99.90;;;;;;5001227;28;20145;-85
2021/11/17 14:13:29;;;;;;;18.27;2.35;;;11.30;99.90;;;;;;5022455;28;20502;-86
2021/11/17 14:15:55;;;;;;;14.15;1.95;;;11.20;99.90;;;;;;5001630;28;20047;-85
2021/11/17 14:18:33;;;;;;;20.20;3.05;;;11.10;99.90;;;;;;5004475;28;20077;-86
2021/11/17 14:21:13;;;;;;;12.98;2.00;;;10.90;99.90;;;;;;5052763;28;20048;-88
2021/11/17 14:23:39;;;;;;;18.40;2.78;;;10.70;99.90;;;;;;5026125;28;20044;-86
2021/11/17 14:26:11;;;;;;;18.02;3.08;;;10.60;99.90;;;;;;5023555;28;20095;-85
2021/11/17 14:28:40;;;;;;;15.60;2.78;;;10.50;99.90;;;;;;5023552;28;20074;-87
2021/11/17 14:31:11;;;;;;;14.52;2.20;;;10.40;99.90;;;;;;5026077;28;20054;-85
2021/11/17 14:33:38;;;;;;;18.98;2.33;;;10.20;99.90;;;;;;5037015;28;20041;-84
2021/11/17 14:36:17;;;;;;;11.98;2.30;;;10.10;99.90;;;;;;5008367;28;20491;-87
2021/11/17 14:38:45;;;;;;;20.90;2.60;;;10.10;99.90;;;;;;5014679;28;20036;-87
2021/11/17 14:41:20;;;;;;;14.30;2.50;;;10.00;99.90;;;;;;5018426;28;20406;-89
2021/11/17 14:43:47;;;;;;;20.65;2.92;;;9.80;99.90;;;;;;5047283;28;20032;-88
2021/11/17 14:46:19;;;;;;;13.55;2.03;;;9.80;99.90;;;;;;5026206;28;20171;-88
2021/11/17 14:51:42;;;;;;;11.85;2.17;;;9.70;99.90;;;;;;5043563;28;20497;-86
2021/11/17 14:54:11;;;;;;;17.52;3.05;;;9.70;99.90;;;;;;5023393;28;20048;-87
2021/11/17 14:56:53;;;;;;;17.58;2.58;;;9.60;99.90;;;;;;5008750;28;20044;-88
2021/11/17 14:59:22;;;;;;;12.77;2.47;;;9.50;99.90;;;;;;5013741;28;20239;-89
2021/11/17 15:02:01;;;;;;;20.35;3.15;;;9.50;99.90;;;;;;5001272;28;20703;-88
2021/11/17 15:04:28;;;;;;;15.80;2.72;;;9.40;99.90;;;;;;5022221;28;20041;-87
2021/11/17 15:07:13;;;;;;;15.88;2.75;;;9.40;99.90;;;;;;4991547;28;20037;-87
2021/11/17 15:09:43;;;;;;;17.45;3.00;;;9.30;99.90;;;;;;5005495;28;20045;-87
2021/11/17 15:12:17;;;;;;;12.68;2.63;;;9.30;99.90;;;;;;5021293;28;20207;-88
2021/11/17 15:14:45;;;;;;;18.67;2.30;;;9.30;99.90;;;;;;5001525;28;20920;-89
2021/11/17 15:17:43;;;;;;;16.88;2.72;;;9.30;99.90;;;;;;5010996;28;20700;-87
2021/11/17 15:20:15;;;;;;;16.25;2.38;;;9.20;99.90;;;;;;5023790;28;20087;-87
2021/11/17 15:22:59;;;;;;;15.53;2.67;;;9.20;99.90;;;;;;5003746;28;20033;-88
2021/11/17 15:25:51;;;;;;;24.30;2.45;;;9.10;99.90;;;;;;5002160;28;20340;-87
2021/11/17 15:28:33;;;;;;;14.75;2.40;;;9.00;99.90;;;;;;4973515;28;20107;-89
2021/11/17 15:31:21;;;;;;;14.90;2.60;;;9.00;99.90;;;;;;5015230;28;20075;-88
2021/11/17 15:34:03;;;;;;;13.85;2.33;;;8.90;99.90;;;;;;5044983;28;20044;-89
2021/11/17 15:36:45;;;;;;;18.75;2.45;;;8.80;99.90;;;;;;5009558;28;20526;-87
2021/11/17 15:39:23;;;;;;;19.17;2.55;;;8.80;99.90;;;;;;5024661;28;20044;-86
2021/11/17 15:41:56;;;;;;;17.27;2.80;;;8.70;99.90;;;;;;5009302;28;20052;-88
2021/11/17 15:44:23;;;;;;;12.50;2.10;;;8.60;99.90;;;;;;5022403;28;21547;-89
2021/11/17 15:47:23;;;;;;;19.08;2.30;;;8.50;99.90;;;;;;5009188;28;20043;-90
2021/11/17 15:49:59;;;;;;;14.88;2.72;;;8.40;99.90;;;;;;5028337;28;20090;-87
2021/11/17 15:52:32;;;;;;;18.27;2.60;;;8.40;99.90;;;;;;5023194;28;20119;-89
2021/11/17 15:55:04;;;;;;;16.42;2.63;;;8.30;99.90;;;;;;5007587;28;20060;-89
2021/11/17 15:57:30;;;;;;;18.48;2.15;;;8.30;99.90;;;;;;5021040;28;20044;-89
2021/11/17 15:59:56;;;;;;;18.55;2.70;;;8.20;99.90;;;;;;5025215;28;20423;-89
2021/11/17 16:02:22;;;;;;;15.30;2.35;;;8.20;99.90;;;;;;5007599;28;20120;-89
2021/11/17 16:04:54;;;;;;;15.18;2.10;;;8.10;99.90;;;;;;5020773;28;20044;-89
2021/11/17 16:07:20;;;;;;;21.02;2.90;;;8.10;99.90;;;;;;5036965;28;20532;-88
2021/11/17 16:09:51;;;;;;;12.57;2.30;;;8.00;99.90;;;;;;5048249;28;20066;-86
2021/11/17 16:12:28;;;;;;;11.35;2.35;;;8.00;99.90;;;;;;5036869;28;20074;-88
2021/11/17 16:14:55;;;;;;;14.25;2.15;;;7.90;99.90;;;;;;5020613;28;20047;-88
2021/11/17 16:17:40;;;;;;;9.48;1.95;;;7.90;99.90;;;;;;5021022;28;20070;-88
2021/11/17 16:20:23;;;;;;;15.30;2.40;;;7.80;99.90;;;;;;5010735;28;20045;-89
2021/11/17 16:25:45;;;;;;;14.80;2.20;;;7.70;99.90;;;;;;4995808;28;20693;-85
2021/11/17 16:28:14;;;;;;;12.10;1.67;;;7.70;99.90;;;;;;5030731;28;20102;-85
2021/11/17 16:30:45;;;;;;;10.98;2.50;;;7.70;99.90;;;;;;5033731;28;20033;-85
2021/11/17 16:33:21;;;;;;;11.65;2.15;;;7.80;99.90;;;;;;5017045;28;20057;-87
2021/11/17 16:36:01;;;;;;;8.10;1.73;;;7.80;99.90;;;;;;5050702;28;21457;-86
2021/11/17 16:38:27;;;;;;;10.55;1.40;;;7.80;99.90;;;;;;5030023;28;20490;-86
2021/11/17 16:40:54;;;;;;;9.30;2.22;;;7.80;99.90;;;;;;5014356;28;20093;-85
2021/11/17 16:43:20;;;;;;;19.05;2.50;;;7.80;99.90;;;;;;5012917;28;20033;-87
2021/11/17 16:45:47;;;;;;;14.30;2.35;;;7.70;99.90;;;;;;5026725;28;20101;-85
2021/11/17 16:48:14;;;;;;;11.00;1.95;;;7.70;99.90;;;;;;5020243;28;20128;-86
2021/11/17 16:50:42;;;;;;;13.35;2.45;;;7.70;99.90;;;;;;5004197;28;20102;-86
2021/11/17 16:53:10;;;;;;;15.45;2.05;;;7.70;99.90;;;;;;5026806;28;20048;-86
2021/11/17 16:55:38;;;;;;;15.27;2.38;;;7.70;99.90;;;;;;5032362;28;20123;-86